sensor_id;sensor_type;location;lat;lon;timestamp;P1;durP1;ratioP1;P2;durP2;ratioP2
82805;SDS011;72558;51.000;-3.112;2023-10-09T00:00:52;46.6;;;26.6;;
82805;SDS011;72558;51.000;-3.112;2023-10-09T00:03:25;47.6;;;27.2;;
82805;SDS011;72558;51.000;-3.112;2023-10-09T00:05:57;46.5;;;26.8;;
82805;SDS011;72558;51.000;-3.112;2023-10-09T00:08:30;46.2;;;27.0;;
82805;SDS011;72558;51.000;-3.112;2023-10-09T00:11:03;50.3;;;29.1;;
82805;SDS011;72558;51.000;-3.112;2023-10-09T00:13:36;58.4;;;31.8;;
82805;SDS011;72558;51.000;-3.112;2023-10-09T00:16:09;50.1;;;29.7;;
82805;SDS011;72558;51.000;-3.112;2023-10-09T00:18:43;52.9;;;30.1;;
82805;SDS011;72558;51.000;-3.112;2023-10-09T00:21:15;61.9;;;32.9;;
82805;SDS011;72558;51.000;-3.112;2023-10-09T00:23:48;64.7;;;34.9;;
82805;SDS011;72558;51.000;-3.112;2023-10-09T00:26:21;58.6;;;32.7;;
82805;SDS011;72558;51.000;-3.112;2023-10-09T00:28:54;49.3;;;28.0;;
82805;SDS011;72558;51.000;-3.112;2023-10-09T00:31:27;56.0;;;30.8;;
82805;SDS011;72558;51.000;-3.112;2023-10-09T00:34:00;47.1;;;27.5;;
82805;SDS011;72558;51.000;-3.112;2023-10-09T00:36:32;53.1;;;29.3;;
82805;SDS011;72558;51.000;-3.112;2023-10-09T00:39:05;55.4;;;29.4;;
82805;SDS011;72558;51.000;-3.112;2023-10-09T00:41:38;54.3;;;30.0;;
82805;SDS011;72558;51.000;-3.112;2023-10-09T00:44:11;49.9;;;28.5;;
82805;SDS011;72558;51.000;-3.112;2023-10-09T00:46:43;50.9;;;29.0;;
82805;SDS011;72558;51.000;-3.112;2023-10-09T00:49:16;50.8;;;29.8;;
82805;SDS011;72558;51.000;-3.112;2023-10-09T00:51:49;51.2;;;27.7;;
82805;SDS011;72558;51.000;-3.112;2023-10-09T00:54:24;65.7;;;34.3;;
82805;SDS011;72558;51.000;-3.112;2023-10-09T00:56:56;53.7;;;29.9;;
82805;SDS011;72558;51.000;-3.112;2023-10-09T00:59:29;58.7;;;32.4;;
82805;SDS011;72558;51.000;-3.112;2023-10-09T01:02:02;53.9;;;30.1;;
82805;SDS011;72558;51.000;-3.112;2023-10-09T01:04:35;68.2;;;34.3;;
82805;SDS011;72558;51.000;-3.112;2023-10-09T01:07:08;58.4;;;32.2;;
82805;SDS011;72558;51.000;-3.112;2023-10-09T01:09:41;58.5;;;31.9;;
82805;SDS011;72558;51.000;-3.112;2023-10-09T01:12:14;50.4;;;31.4;;
82805;SDS011;72558;51.000;-3.112;2023-10-09T01:14:46;61.2;;;32.2;;
82805;SDS011;72558;51.000;-3.112;2023-10-09T01:17:19;54.1;;;30.5;;
82805;SDS011;72558;51.000;-3.112;2023-10-09T01:19:52;51.5;;;30.1;;
82805;SDS011;72558;51.000;-3.112;2023-10-09T01:22:25;54.8;;;30.8;;
82805;SDS011;72558;51.000;-3.112;2023-10-09T01:24:57;49.6;;;29.1;;
82805;SDS011;72558;51.000;-3.112;2023-10-09T01:27:30;49.3;;;28.3;;
82805;SDS011;72558;51.000;-3.112;2023-10-09T01:30:03;59.1;;;31.8;;
82805;SDS011;72558;51.000;-3.112;2023-10-09T01:32:37;57.4;;;31.4;;
82805;SDS011;72558;51.000;-3.112;2023-10-09T01:35:09;53.9;;;30.6;;
82805;SDS011;72558;51.000;-3.112;2023-10-09T01:37:42;57.9;;;32.7;;
82805;SDS011;72558;51.000;-3.112;2023-10-09T01:40:15;55.9;;;29.6;;
82805;SDS011;72558;51.000;-3.112;2023-10-09T01:42:48;48.9;;;27.9;;
82805;SDS011;72558;51.000;-3.112;2023-10-09T01:45:21;49.6;;;28.3;;
82805;SDS011;72558;51.000;-3.112;2023-10-09T01:47:53;53.7;;;29.3;;
82805;SDS011;72558;51.000;-3.112;2023-10-09T01:50:26;51.6;;;28.3;;
82805;SDS011;72558;51.000;-3.112;2023-10-09T01:52:59;51.7;;;28.4;;
82805;SDS011;72558;51.000;-3.112;2023-10-09T01:55:32;49.7;;;27.6;;
82805;SDS011;72558;51.000;-3.112;2023-10-09T01:58:05;49.0;;;28.1;;
82805;SDS011;72558;51.000;-3.112;2023-10-09T02:00:38;52.4;;;28.2;;
82805;SDS011;72558;51.000;-3.112;2023-10-09T02:03:11;58.5;;;31.0;;
82805;SDS011;72558;51.000;-3.112;2023-10-09T02:05:44;51.3;;;28.2;;
82805;SDS011;72558;51.000;-3.112;2023-10-09T02:08:16;51.9;;;28.3;;
82805;SDS011;72558;51.000;-3.112;2023-10-09T02:10:49;56.3;;;30.1;;
82805;SDS011;72558;51.000;-3.112;2023-10-09T02:13:22;47.8;;;28.0;;
82805;SDS011;72558;51.000;-3.112;2023-10-09T02:15:55;46.0;;;26.4;;
82805;SDS011;72558;51.000;-3.112;2023-10-09T02:18:28;47.7;;;26.4;;
82805;SDS011;72558;51.000;-3.112;2023-10-09T02:21:01;46.0;;;26.3;;
82805;SDS011;72558;51.000;-3.112;2023-10-09T02:23:37;44.3;;;25.5;;
82805;SDS011;72558;51.000;-3.112;2023-10-09T02:26:10;43.4;;;24.9;;
82805;SDS011;72558;51.000;-3.112;2023-10-09T02:28:44;43.9;;;25.6;;
82805;SDS011;72558;51.000;-3.112;2023-10-09T02:31:17;46.4;;;25.4;;
82805;SDS011;72558;51.000;-3.112;2023-10-09T02:33:49;46.4;;;25.3;;
82805;SDS011;72558;51.000;-3.112;2023-10-09T02:36:22;39.6;;;22.5;;
82805;SDS011;72558;51.000;-3.112;2023-10-09T02:38:55;40.3;;;23.8;;
82805;SDS011;72558;51.000;-3.112;2023-10-09T02:41:28;41.6;;;23.4;;
82805;SDS011;72558;51.000;-3.112;2023-10-09T02:44:01;38.2;;;22.4;;
82805;SDS011;72558;51.000;-3.112;2023-10-09T02:46:34;39.1;;;22.8;;
82805;SDS011;72558;51.000;-3.112;2023-10-09T02:49:07;32.9;;;20.3;;
82805;SDS011;72558;51.000;-3.112;2023-10-09T02:51:39;36.3;;;21.2;;
82805;SDS011;72558;51.000;-3.112;2023-10-09T02:54:12;36.4;;;20.9;;
82805;SDS011;72558;51.000;-3.112;2023-10-09T02:56:45;40.6;;;22.7;;
82805;SDS011;72558;51.000;-3.112;2023-10-09T02:59:18;31.4;;;19.5;;
82805;SDS011;72558;51.000;-3.112;2023-10-09T03:01:50;32.4;;;18.7;;
82805;SDS011;72558;51.000;-3.112;2023-10-09T03:04:24;29.0;;;17.7;;
82805;SDS011;72558;51.000;-3.112;2023-10-09T03:06:56;30.9;;;18.8;;
82805;SDS011;72558;51.000;-3.112;2023-10-09T03:09:29;35.7;;;20.2;;
82805;SDS011;72558;51.000;-3.112;2023-10-09T03:12:02;35.5;;;19.4;;
82805;SDS011;72558;51.000;-3.112;2023-10-09T03:14:36;34.4;;;19.2;;
82805;SDS011;72558;51.000;-3.112;2023-10-09T03:17:09;29.0;;;16.5;;
82805;SDS011;72558;51.000;-3.112;2023-10-09T03:19:41;30.1;;;16.2;;
82805;SDS011;72558;51.000;-3.112;2023-10-09T03:22:14;29.0;;;15.4;;
82805;SDS011;72558;51.000;-3.112;2023-10-09T03:24:47;28.6;;;16.5;;
82805;SDS011;72558;51.000;-3.112;2023-10-09T03:27:20;29.4;;;15.8;;
82805;SDS011;72558;51.000;-3.112;2023-10-09T03:29:53;30.1;;;15.8;;
82805;SDS011;72558;51.000;-3.112;2023-10-09T03:32:25;31.5;;;15.7;;
82805;SDS011;72558;51.000;-3.112;2023-10-09T03:34:58;27.9;;;15.7;;
82805;SDS011;72558;51.000;-3.112;2023-10-09T03:37:31;25.8;;;14.7;;
82805;SDS011;72558;51.000;-3.112;2023-10-09T03:40:04;29.0;;;16.0;;
82805;SDS011;72558;51.000;-3.112;2023-10-09T03:42:37;27.1;;;14.8;;
82805;SDS011;72558;51.000;-3.112;2023-10-09T03:45:10;28.7;;;16.6;;
82805;SDS011;72558;51.000;-3.112;2023-10-09T03:47:43;29.3;;;16.6;;
82805;SDS011;72558;51.000;-3.112;2023-10-09T03:50:16;31.3;;;17.0;;
82805;SDS011;72558;51.000;-3.112;2023-10-09T03:52:48;30.0;;;16.1;;
82805;SDS011;72558;51.000;-3.112;2023-10-09T03:55:21;27.6;;;14.4;;
82805;SDS011;72558;51.000;-3.112;2023-10-09T03:57:54;26.4;;;13.8;;
82805;SDS011;72558;51.000;-3.112;2023-10-09T04:00:27;28.1;;;15.6;;
82805;SDS011;72558;51.000;-3.112;2023-10-09T04:03:00;25.9;;;15.1;;
82805;SDS011;72558;51.000;-3.112;2023-10-09T04:05:33;28.5;;;14.7;;
82805;SDS011;72558;51.000;-3.112;2023-10-09T04:08:06;30.1;;;16.4;;
82805;SDS011;72558;51.000;-3.112;2023-10-09T04:10:38;26.0;;;13.8;;
82805;SDS011;72558;51.000;-3.112;2023-10-09T04:13:11;27.7;;;15.1;;
82805;SDS011;72558;51.000;-3.112;2023-10-09T04:15:44;25.8;;;14.4;;
82805;SDS011;72558;51.000;-3.112;2023-10-09T04:18:17;27.1;;;14.8;;
82805;SDS011;72558;51.000;-3.112;2023-10-09T04:20:50;26.0;;;14.5;;
82805;SDS011;72558;51.000;-3.112;2023-10-09T04:23:23;27.1;;;14.1;;
82805;SDS011;72558;51.000;-3.112;2023-10-09T04:25:55;28.9;;;15.4;;
82805;SDS011;72558;51.000;-3.112;2023-10-09T04:28:28;28.1;;;15.7;;
82805;SDS011;72558;51.000;-3.112;2023-10-09T04:31:01;26.5;;;15.5;;
82805;SDS011;72558;51.000;-3.112;2023-10-09T04:33:33;26.7;;;15.2;;
82805;SDS011;72558;51.000;-3.112;2023-10-09T04:36:06;28.0;;;15.9;;
82805;SDS011;72558;51.000;-3.112;2023-10-09T04:38:40;27.9;;;15.1;;
82805;SDS011;72558;51.000;-3.112;2023-10-09T04:41:13;30.5;;;17.2;;
82805;SDS011;72558;51.000;-3.112;2023-10-09T04:43:46;33.0;;;16.5;;
82805;SDS011;72558;51.000;-3.112;2023-10-09T04:46:18;29.4;;;16.4;;
82805;SDS011;72558;51.000;-3.112;2023-10-09T04:48:51;29.4;;;15.2;;
82805;SDS011;72558;51.000;-3.112;2023-10-09T04:51:24;33.4;;;17.2;;
82805;SDS011;72558;51.000;-3.112;2023-10-09T04:53:56;29.5;;;15.7;;
82805;SDS011;72558;51.000;-3.112;2023-10-09T04:56:29;29.2;;;15.4;;
82805;SDS011;72558;51.000;-3.112;2023-10-09T04:59:02;31.7;;;17.4;;
82805;SDS011;72558;51.000;-3.112;2023-10-09T05:01:35;29.9;;;15.7;;
82805;SDS011;72558;51.000;-3.112;2023-10-09T05:04:08;28.1;;;16.3;;
82805;SDS011;72558;51.000;-3.112;2023-10-09T05:06:40;27.7;;;15.2;;
82805;SDS011;72558;51.000;-3.112;2023-10-09T05:09:13;30.6;;;15.9;;
82805;SDS011;72558;51.000;-3.112;2023-10-09T05:11:46;30.0;;;15.1;;
82805;SDS011;72558;51.000;-3.112;2023-10-09T05:14:19;29.6;;;16.2;;
82805;SDS011;72558;51.000;-3.112;2023-10-09T05:16:52;27.6;;;15.1;;
82805;SDS011;72558;51.000;-3.112;2023-10-09T05:19:25;28.7;;;16.4;;
82805;SDS011;72558;51.000;-3.112;2023-10-09T05:21:58;29.9;;;15.3;;
82805;SDS011;72558;51.000;-3.112;2023-10-09T05:24:30;29.8;;;15.4;;
82805;SDS011;72558;51.000;-3.112;2023-10-09T05:27:03;27.9;;;15.4;;
82805;SDS011;72558;51.000;-3.112;2023-10-09T05:29:36;27.6;;;14.8;;
82805;SDS011;72558;51.000;-3.112;2023-10-09T05:32:09;26.8;;;14.8;;
82805;SDS011;72558;51.000;-3.112;2023-10-09T05:34:42;26.7;;;14.0;;
82805;SDS011;72558;51.000;-3.112;2023-10-09T05:37:16;25.3;;;14.2;;
82805;SDS011;72558;51.000;-3.112;2023-10-09T05:39:49;26.9;;;14.4;;
82805;SDS011;72558;51.000;-3.112;2023-10-09T05:42:22;27.5;;;15.2;;
82805;SDS011;72558;51.000;-3.112;2023-10-09T05:44:54;25.1;;;14.1;;
82805;SDS011;72558;51.000;-3.112;2023-10-09T05:47:27;27.9;;;15.8;;
82805;SDS011;72558;51.000;-3.112;2023-10-09T05:50:00;27.0;;;14.6;;
82805;SDS011;72558;51.000;-3.112;2023-10-09T05:52:33;29.1;;;14.9;;
82805;SDS011;72558;51.000;-3.112;2023-10-09T05:55:06;28.5;;;14.1;;
82805;SDS011;72558;51.000;-3.112;2023-10-09T05:57:39;25.6;;;13.6;;
82805;SDS011;72558;51.000;-3.112;2023-10-09T06:00:12;24.5;;;13.8;;
82805;SDS011;72558;51.000;-3.112;2023-10-09T06:02:45;27.3;;;14.2;;
82805;SDS011;72558;51.000;-3.112;2023-10-09T06:05:18;25.6;;;14.2;;
82805;SDS011;72558;51.000;-3.112;2023-10-09T06:07:52;28.0;;;15.1;;
82805;SDS011;72558;51.000;-3.112;2023-10-09T06:10:25;27.8;;;14.6;;
82805;SDS011;72558;51.000;-3.112;2023-10-09T06:12:57;25.3;;;13.7;;
82805;SDS011;72558;51.000;-3.112;2023-10-09T06:15:30;27.4;;;14.3;;
82805;SDS011;72558;51.000;-3.112;2023-10-09T06:18:07;24.9;;;14.3;;
82805;SDS011;72558;51.000;-3.112;2023-10-09T06:20:40;27.0;;;13.7;;
82805;SDS011;72558;51.000;-3.112;2023-10-09T06:23:13;23.2;;;12.7;;
82805;SDS011;72558;51.000;-3.112;2023-10-09T06:25:46;26.1;;;13.7;;
82805;SDS011;72558;51.000;-3.112;2023-10-09T06:28:19;25.9;;;13.8;;
82805;SDS011;72558;51.000;-3.112;2023-10-09T06:30:51;25.1;;;13.3;;
82805;SDS011;72558;51.000;-3.112;2023-10-09T06:33:24;25.1;;;13.8;;
82805;SDS011;72558;51.000;-3.112;2023-10-09T06:35:57;25.9;;;14.1;;
82805;SDS011;72558;51.000;-3.112;2023-10-09T06:38:30;26.5;;;13.9;;
82805;SDS011;72558;51.000;-3.112;2023-10-09T06:41:03;26.0;;;13.2;;
82805;SDS011;72558;51.000;-3.112;2023-10-09T06:43:36;24.0;;;13.7;;
82805;SDS011;72558;51.000;-3.112;2023-10-09T06:46:08;26.2;;;14.4;;
82805;SDS011;72558;51.000;-3.112;2023-10-09T06:48:46;24.6;;;12.5;;
82805;SDS011;72558;51.000;-3.112;2023-10-09T06:51:19;27.0;;;13.7;;
82805;SDS011;72558;51.000;-3.112;2023-10-09T06:53:52;24.4;;;13.8;;
82805;SDS011;72558;51.000;-3.112;2023-10-09T06:56:25;26.9;;;13.3;;
82805;SDS011;72558;51.000;-3.112;2023-10-09T06:58:59;24.6;;;14.0;;
82805;SDS011;72558;51.000;-3.112;2023-10-09T07:01:32;26.2;;;13.2;;
82805;SDS011;72558;51.000;-3.112;2023-10-09T07:04:05;27.4;;;14.0;;
82805;SDS011;72558;51.000;-3.112;2023-10-09T07:06:38;29.0;;;15.4;;
82805;SDS011;72558;51.000;-3.112;2023-10-09T07:09:10;27.4;;;14.7;;
82805;SDS011;72558;51.000;-3.112;2023-10-09T07:11:43;33.8;;;14.5;;
82805;SDS011;72558;51.000;-3.112;2023-10-09T07:14:17;32.9;;;15.7;;
82805;SDS011;72558;51.000;-3.112;2023-10-09T07:16:51;27.3;;;14.1;;
82805;SDS011;72558;51.000;-3.112;2023-10-09T07:19:23;29.4;;;14.9;;
82805;SDS011;72558;51.000;-3.112;2023-10-09T07:21:56;37.1;;;17.0;;
82805;SDS011;72558;51.000;-3.112;2023-10-09T07:24:29;33.4;;;15.2;;
82805;SDS011;72558;51.000;-3.112;2023-10-09T07:27:02;33.2;;;15.3;;
82805;SDS011;72558;51.000;-3.112;2023-10-09T07:29:35;38.4;;;16.2;;
82805;SDS011;72558;51.000;-3.112;2023-10-09T07:32:07;39.2;;;16.5;;
82805;SDS011;72558;51.000;-3.112;2023-10-09T07:34:40;46.6;;;18.0;;
82805;SDS011;72558;51.000;-3.112;2023-10-09T07:37:13;55.4;;;19.0;;
82805;SDS011;72558;51.000;-3.112;2023-10-09T07:39:46;72.6;;;20.5;;
82805;SDS011;72558;51.000;-3.112;2023-10-09T07:42:18;79.5;;;21.6;;
82805;SDS011;72558;51.000;-3.112;2023-10-09T07:44:51;78.7;;;22.2;;
82805;SDS011;72558;51.000;-3.112;2023-10-09T07:47:24;82.3;;;21.5;;
82805;SDS011;72558;51.000;-3.112;2023-10-09T07:49:57;83.3;;;22.5;;
82805;SDS011;72558;51.000;-3.112;2023-10-09T07:52:29;122.7;;;23.5;;
82805;SDS011;72558;51.000;-3.112;2023-10-09T07:55:02;85.0;;;21.3;;
82805;SDS011;72558;51.000;-3.112;2023-10-09T07:57:35;122.9;;;24.9;;
82805;SDS011;72558;51.000;-3.112;2023-10-09T08:00:08;97.9;;;22.8;;
82805;SDS011;72558;51.000;-3.112;2023-10-09T08:02:41;89.9;;;23.1;;
82805;SDS011;72558;51.000;-3.112;2023-10-09T08:05:14;96.4;;;24.1;;
82805;SDS011;72558;51.000;-3.112;2023-10-09T08:07:47;101.7;;;23.6;;
82805;SDS011;72558;51.000;-3.112;2023-10-09T08:10:20;103.0;;;24.5;;
82805;SDS011;72558;51.000;-3.112;2023-10-09T08:12:52;105.7;;;24.6;;
82805;SDS011;72558;51.000;-3.112;2023-10-09T08:15:25;137.9;;;26.4;;
82805;SDS011;72558;51.000;-3.112;2023-10-09T08:17:58;131.9;;;25.0;;
82805;SDS011;72558;51.000;-3.112;2023-10-09T08:20:31;111.9;;;25.3;;
82805;SDS011;72558;51.000;-3.112;2023-10-09T08:23:04;122.4;;;24.5;;
82805;SDS011;72558;51.000;-3.112;2023-10-09T08:25:36;138.6;;;23.9;;
82805;SDS011;72558;51.000;-3.112;2023-10-09T08:28:09;123.5;;;25.2;;
82805;SDS011;72558;51.000;-3.112;2023-10-09T08:30:42;122.7;;;25.0;;
82805;SDS011;72558;51.000;-3.112;2023-10-09T08:33:15;107.0;;;24.8;;
82805;SDS011;72558;51.000;-3.112;2023-10-09T08:35:48;151.7;;;26.4;;
82805;SDS011;72558;51.000;-3.112;2023-10-09T08:38:22;147.7;;;27.5;;
82805;SDS011;72558;51.000;-3.112;2023-10-09T08:40:55;109.2;;;27.0;;
82805;SDS011;72558;51.000;-3.112;2023-10-09T08:43:28;118.1;;;26.4;;
82805;SDS011;72558;51.000;-3.112;2023-10-09T08:46:01;94.8;;;24.6;;
82805;SDS011;72558;51.000;-3.112;2023-10-09T08:48:36;77.7;;;23.1;;
82805;SDS011;72558;51.000;-3.112;2023-10-09T08:51:09;74.2;;;23.0;;
82805;SDS011;72558;51.000;-3.112;2023-10-09T08:53:42;68.9;;;21.8;;
82805;SDS011;72558;51.000;-3.112;2023-10-09T08:56:15;76.9;;;23.4;;
82805;SDS011;72558;51.000;-3.112;2023-10-09T08:58:49;56.6;;;21.2;;
82805;SDS011;72558;51.000;-3.112;2023-10-09T09:01:22;66.4;;;22.7;;
82805;SDS011;72558;51.000;-3.112;2023-10-09T09:03:56;50.1;;;19.7;;
82805;SDS011;72558;51.000;-3.112;2023-10-09T09:06:28;41.2;;;17.4;;
82805;SDS011;72558;51.000;-3.112;2023-10-09T09:09:08;44.5;;;18.2;;
82805;SDS011;72558;51.000;-3.112;2023-10-09T09:11:43;43.7;;;17.5;;
82805;SDS011;72558;51.000;-3.112;2023-10-09T09:14:16;36.6;;;16.3;;
82805;SDS011;72558;51.000;-3.112;2023-10-09T09:16:48;36.1;;;16.1;;
82805;SDS011;72558;51.000;-3.112;2023-10-09T09:19:21;37.7;;;16.5;;
82805;SDS011;72558;51.000;-3.112;2023-10-09T09:22:02;31.9;;;14.5;;
82805;SDS011;72558;51.000;-3.112;2023-10-09T09:24:35;35.3;;;14.4;;
82805;SDS011;72558;51.000;-3.112;2023-10-09T09:27:08;34.6;;;14.5;;
82805;SDS011;72558;51.000;-3.112;2023-10-09T09:29:41;31.0;;;14.3;;
82805;SDS011;72558;51.000;-3.112;2023-10-09T09:32:13;27.3;;;14.0;;
82805;SDS011;72558;51.000;-3.112;2023-10-09T09:34:46;30.5;;;13.6;;
82805;SDS011;72558;51.000;-3.112;2023-10-09T09:37:20;25.2;;;12.4;;
82805;SDS011;72558;51.000;-3.112;2023-10-09T09:39:53;23.9;;;11.9;;
82805;SDS011;72558;51.000;-3.112;2023-10-09T09:42:26;21.4;;;11.3;;
82805;SDS011;72558;51.000;-3.112;2023-10-09T09:44:59;25.4;;;11.7;;
82805;SDS011;72558;51.000;-3.112;2023-10-09T09:47:33;21.8;;;10.9;;
82805;SDS011;72558;51.000;-3.112;2023-10-09T09:50:06;21.4;;;11.8;;
82805;SDS011;72558;51.000;-3.112;2023-10-09T09:52:39;22.9;;;11.3;;
82805;SDS011;72558;51.000;-3.112;2023-10-09T09:55:12;23.9;;;11.4;;
82805;SDS011;72558;51.000;-3.112;2023-10-09T09:57:45;20.7;;;11.3;;
82805;SDS011;72558;51.000;-3.112;2023-10-09T10:00:19;23.1;;;11.3;;
82805;SDS011;72558;51.000;-3.112;2023-10-09T10:02:53;22.3;;;11.3;;
82805;SDS011;72558;51.000;-3.112;2023-10-09T10:05:27;21.7;;;11.6;;
82805;SDS011;72558;51.000;-3.112;2023-10-09T10:08:00;21.0;;;10.7;;
82805;SDS011;72558;51.000;-3.112;2023-10-09T10:10:34;21.6;;;11.9;;
82805;SDS011;72558;51.000;-3.112;2023-10-09T10:13:07;22.5;;;12.1;;
82805;SDS011;72558;51.000;-3.112;2023-10-09T10:15:40;24.8;;;12.6;;
82805;SDS011;72558;51.000;-3.112;2023-10-09T10:18:45;26.3;;;13.3;;
82805;SDS011;72558;51.000;-3.112;2023-10-09T10:21:27;26.4;;;13.1;;
82805;SDS011;72558;51.000;-3.112;2023-10-09T10:24:01;23.9;;;11.9;;
82805;SDS011;72558;51.000;-3.112;2023-10-09T10:26:34;22.7;;;11.3;;
82805;SDS011;72558;51.000;-3.112;2023-10-09T10:29:07;22.5;;;12.0;;
82805;SDS011;72558;51.000;-3.112;2023-10-09T10:31:48;22.3;;;11.9;;
82805;SDS011;72558;51.000;-3.112;2023-10-09T10:34:29;19.8;;;10.3;;
82805;SDS011;72558;51.000;-3.112;2023-10-09T10:37:23;20.0;;;10.0;;
82805;SDS011;72558;51.000;-3.112;2023-10-09T10:40:06;18.7;;;9.7;;
82805;SDS011;72558;51.000;-3.112;2023-10-09T10:42:40;17.9;;;9.7;;
82805;SDS011;72558;51.000;-3.112;2023-10-09T10:45:19;20.5;;;10.4;;
82805;SDS011;72558;51.000;-3.112;2023-10-09T10:47:51;16.6;;;9.0;;
82805;SDS011;72558;51.000;-3.112;2023-10-09T10:50:25;19.0;;;9.3;;
82805;SDS011;72558;51.000;-3.112;2023-10-09T10:52:58;19.4;;;8.7;;
82805;SDS011;72558;51.000;-3.112;2023-10-09T10:55:40;20.8;;;9.6;;
82805;SDS011;72558;51.000;-3.112;2023-10-09T10:58:26;21.2;;;9.8;;
82805;SDS011;72558;51.000;-3.112;2023-10-09T11:00:59;19.3;;;9.4;;
82805;SDS011;72558;51.000;-3.112;2023-10-09T11:03:32;21.9;;;9.8;;
82805;SDS011;72558;51.000;-3.112;2023-10-09T11:06:05;19.3;;;10.2;;
82805;SDS011;72558;51.000;-3.112;2023-10-09T11:08:37;20.0;;;10.4;;
82805;SDS011;72558;51.000;-3.112;2023-10-09T11:11:15;21.8;;;9.8;;
82805;SDS011;72558;51.000;-3.112;2023-10-09T11:13:48;16.8;;;8.8;;
82805;SDS011;72558;51.000;-3.112;2023-10-09T11:16:21;20.0;;;9.7;;
82805;SDS011;72558;51.000;-3.112;2023-10-09T11:18:54;18.3;;;9.7;;
82805;SDS011;72558;51.000;-3.112;2023-10-09T11:21:27;19.0;;;9.8;;
82805;SDS011;72558;51.000;-3.112;2023-10-09T11:24:00;19.8;;;9.3;;
82805;SDS011;72558;51.000;-3.112;2023-10-09T11:26:33;20.6;;;10.4;;
82805;SDS011;72558;51.000;-3.112;2023-10-09T11:29:06;17.1;;;9.0;;
82805;SDS011;72558;51.000;-3.112;2023-10-09T11:31:40;20.3;;;10.7;;
82805;SDS011;72558;51.000;-3.112;2023-10-09T11:34:14;20.8;;;10.1;;
82805;SDS011;72558;51.000;-3.112;2023-10-09T11:36:51;19.6;;;9.6;;
82805;SDS011;72558;51.000;-3.112;2023-10-09T11:39:23;17.3;;;8.9;;
82805;SDS011;72558;51.000;-3.112;2023-10-09T11:41:57;23.6;;;9.7;;
82805;SDS011;72558;51.000;-3.112;2023-10-09T11:44:35;18.7;;;9.2;;
82805;SDS011;72558;51.000;-3.112;2023-10-09T11:47:08;21.6;;;9.2;;
82805;SDS011;72558;51.000;-3.112;2023-10-09T11:49:41;20.0;;;9.5;;
82805;SDS011;72558;51.000;-3.112;2023-10-09T11:52:19;21.9;;;9.3;;
82805;SDS011;72558;51.000;-3.112;2023-10-09T11:54:52;17.8;;;8.9;;
82805;SDS011;72558;51.000;-3.112;2023-10-09T11:57:24;18.8;;;8.4;;
82805;SDS011;72558;51.000;-3.112;2023-10-09T11:59:58;16.7;;;8.2;;
82805;SDS011;72558;51.000;-3.112;2023-10-09T12:02:31;16.8;;;7.7;;
82805;SDS011;72558;51.000;-3.112;2023-10-09T12:05:04;14.8;;;6.7;;
82805;SDS011;72558;51.000;-3.112;2023-10-09T12:07:37;15.3;;;6.4;;
82805;SDS011;72558;51.000;-3.112;2023-10-09T12:10:10;14.6;;;6.6;;
82805;SDS011;72558;51.000;-3.112;2023-10-09T12:12:43;15.1;;;6.9;;
82805;SDS011;72558;51.000;-3.112;2023-10-09T12:15:16;15.2;;;6.8;;
82805;SDS011;72558;51.000;-3.112;2023-10-09T12:17:48;16.0;;;6.5;;
82805;SDS011;72558;51.000;-3.112;2023-10-09T12:20:21;14.9;;;6.7;;
82805;SDS011;72558;51.000;-3.112;2023-10-09T12:22:54;15.1;;;6.4;;
82805;SDS011;72558;51.000;-3.112;2023-10-09T12:25:27;14.6;;;6.5;;
82805;SDS011;72558;51.000;-3.112;2023-10-09T12:28:00;12.7;;;5.5;;
82805;SDS011;72558;51.000;-3.112;2023-10-09T12:30:33;13.3;;;5.6;;
82805;SDS011;72558;51.000;-3.112;2023-10-09T12:33:06;13.3;;;5.0;;
82805;SDS011;72558;51.000;-3.112;2023-10-09T12:35:39;14.6;;;5.4;;
82805;SDS011;72558;51.000;-3.112;2023-10-09T12:38:12;13.1;;;5.2;;
82805;SDS011;72558;51.000;-3.112;2023-10-09T12:40:45;12.0;;;4.8;;
82805;SDS011;72558;51.000;-3.112;2023-10-09T12:43:18;13.2;;;5.1;;
82805;SDS011;72558;51.000;-3.112;2023-10-09T12:45:51;12.7;;;5.5;;
82805;SDS011;72558;51.000;-3.112;2023-10-09T12:48:24;13.2;;;5.7;;
82805;SDS011;72558;51.000;-3.112;2023-10-09T12:50:57;12.3;;;5.2;;
82805;SDS011;72558;51.000;-3.112;2023-10-09T12:53:29;11.1;;;5.1;;
82805;SDS011;72558;51.000;-3.112;2023-10-09T12:56:02;14.6;;;5.6;;
82805;SDS011;72558;51.000;-3.112;2023-10-09T12:58:35;11.5;;;4.6;;
82805;SDS011;72558;51.000;-3.112;2023-10-09T13:01:08;13.6;;;5.6;;
82805;SDS011;72558;51.000;-3.112;2023-10-09T13:03:40;12.7;;;4.7;;
82805;SDS011;72558;51.000;-3.112;2023-10-09T13:06:13;11.6;;;4.8;;
82805;SDS011;72558;51.000;-3.112;2023-10-09T13:08:46;12.6;;;4.8;;
82805;SDS011;72558;51.000;-3.112;2023-10-09T13:11:19;14.1;;;5.2;;
82805;SDS011;72558;51.000;-3.112;2023-10-09T13:13:52;12.7;;;4.8;;
82805;SDS011;72558;51.000;-3.112;2023-10-09T13:16:25;15.8;;;4.9;;
82805;SDS011;72558;51.000;-3.112;2023-10-09T13:18:57;13.3;;;4.5;;
82805;SDS011;72558;51.000;-3.112;2023-10-09T13:21:30;11.2;;;4.2;;
82805;SDS011;72558;51.000;-3.112;2023-10-09T13:24:03;13.8;;;4.9;;
82805;SDS011;72558;51.000;-3.112;2023-10-09T13:26:36;13.4;;;4.7;;
82805;SDS011;72558;51.000;-3.112;2023-10-09T13:29:09;12.3;;;5.1;;
82805;SDS011;72558;51.000;-3.112;2023-10-09T13:31:41;9.8;;;3.9;;
82805;SDS011;72558;51.000;-3.112;2023-10-09T13:34:14;12.5;;;4.4;;
82805;SDS011;72558;51.000;-3.112;2023-10-09T13:36:47;11.4;;;4.4;;
82805;SDS011;72558;51.000;-3.112;2023-10-09T13:39:20;13.3;;;4.6;;
82805;SDS011;72558;51.000;-3.112;2023-10-09T13:41:52;11.4;;;4.8;;
82805;SDS011;72558;51.000;-3.112;2023-10-09T13:44:26;10.0;;;4.3;;
82805;SDS011;72558;51.000;-3.112;2023-10-09T13:46:59;10.6;;;4.3;;
82805;SDS011;72558;51.000;-3.112;2023-10-09T13:49:32;13.7;;;4.8;;
82805;SDS011;72558;51.000;-3.112;2023-10-09T13:52:05;11.2;;;4.8;;
82805;SDS011;72558;51.000;-3.112;2023-10-09T13:54:38;10.3;;;4.3;;
82805;SDS011;72558;51.000;-3.112;2023-10-09T13:57:11;12.4;;;4.9;;
82805;SDS011;72558;51.000;-3.112;2023-10-09T13:59:44;11.9;;;4.4;;
82805;SDS011;72558;51.000;-3.112;2023-10-09T14:02:17;12.9;;;4.5;;
82805;SDS011;72558;51.000;-3.112;2023-10-09T14:04:50;11.3;;;4.7;;
82805;SDS011;72558;51.000;-3.112;2023-10-09T14:07:23;14.4;;;4.6;;
82805;SDS011;72558;51.000;-3.112;2023-10-09T14:09:56;13.4;;;4.5;;
82805;SDS011;72558;51.000;-3.112;2023-10-09T14:12:28;10.7;;;4.4;;
82805;SDS011;72558;51.000;-3.112;2023-10-09T14:15:01;9.6;;;4.3;;
82805;SDS011;72558;51.000;-3.112;2023-10-09T14:17:34;9.7;;;4.1;;
82805;SDS011;72558;51.000;-3.112;2023-10-09T14:20:07;12.4;;;4.9;;
82805;SDS011;72558;51.000;-3.112;2023-10-09T14:22:40;11.7;;;4.4;;
82805;SDS011;72558;51.000;-3.112;2023-10-09T14:25:13;11.4;;;4.9;;
82805;SDS011;72558;51.000;-3.112;2023-10-09T14:27:46;14.8;;;4.7;;
82805;SDS011;72558;51.000;-3.112;2023-10-09T14:30:19;12.4;;;4.8;;
82805;SDS011;72558;51.000;-3.112;2023-10-09T14:32:52;12.9;;;4.6;;
82805;SDS011;72558;51.000;-3.112;2023-10-09T14:35:24;11.1;;;4.6;;
82805;SDS011;72558;51.000;-3.112;2023-10-09T14:37:57;10.6;;;4.3;;
82805;SDS011;72558;51.000;-3.112;2023-10-09T14:40:30;11.5;;;4.6;;
82805;SDS011;72558;51.000;-3.112;2023-10-09T14:43:02;12.4;;;4.5;;
82805;SDS011;72558;51.000;-3.112;2023-10-09T14:45:35;14.7;;;4.7;;
82805;SDS011;72558;51.000;-3.112;2023-10-09T14:48:08;11.2;;;4.7;;
82805;SDS011;72558;51.000;-3.112;2023-10-09T14:50:41;13.9;;;4.9;;
82805;SDS011;72558;51.000;-3.112;2023-10-09T14:53:18;12.3;;;4.6;;
82805;SDS011;72558;51.000;-3.112;2023-10-09T14:55:51;11.1;;;4.5;;
82805;SDS011;72558;51.000;-3.112;2023-10-09T14:58:26;13.6;;;4.7;;
82805;SDS011;72558;51.000;-3.112;2023-10-09T15:00:59;13.8;;;4.5;;
82805;SDS011;72558;51.000;-3.112;2023-10-09T15:03:39;12.4;;;4.4;;
82805;SDS011;72558;51.000;-3.112;2023-10-09T15:06:12;12.4;;;4.3;;
82805;SDS011;72558;51.000;-3.112;2023-10-09T15:08:45;12.4;;;4.3;;
82805;SDS011;72558;51.000;-3.112;2023-10-09T15:11:18;12.0;;;4.9;;
82805;SDS011;72558;51.000;-3.112;2023-10-09T15:13:53;11.2;;;4.9;;